sensor_id;sensor_type;location;lat;lon;timestamp;temperature;humidity
46319;DHT22;32042;50.916;2.926;2022-09-20T17:17:36;15.90;99.90
46319;DHT22;32042;50.916;2.926;2022-09-20T17:20:01;15.70;99.90
46319;DHT22;32042;50.916;2.926;2022-09-20T17:22:29;15.70;99.90
46319;DHT22;32042;50.916;2.926;2022-09-20T17:24:55;15.70;99.90
46319;DHT22;32042;50.916;2.926;2022-09-20T17:27:22;15.70;99.90
46319;DHT22;32042;50.916;2.926;2022-09-20T17:29:48;15.80;99.90
46319;DHT22;32042;50.916;2.926;2022-09-20T17:32:14;15.80;99.90
46319;DHT22;32042;50.916;2.926;2022-09-20T17:34:40;15.90;99.90
46319;DHT22;32042;50.916;2.926;2022-09-20T17:37:05;15.90;99.90
46319;DHT22;32042;50.916;2.926;2022-09-20T17:39:31;15.90;99.90
46319;DHT22;32042;50.916;2.926;2022-09-20T17:41:57;15.90;99.90
46319;DHT22;32042;50.916;2.926;2022-09-20T17:44:22;15.90;99.90
46319;DHT22;32042;50.916;2.926;2022-09-20T17:46:49;15.80;99.90
46319;DHT22;32042;50.916;2.926;2022-09-20T17:49:17;15.70;99.90
46319;DHT22;32042;50.916;2.926;2022-09-20T17:51:52;15.70;99.90
46319;DHT22;32042;50.916;2.926;2022-09-20T17:54:18;15.60;99.90
46319;DHT22;32042;50.916;2.926;2022-09-20T17:56:46;15.60;99.90
46319;DHT22;32042;50.916;2.926;2022-09-20T17:59:14;15.50;99.90
46319;DHT22;32042;50.916;2.926;2022-09-20T18:01:41;15.40;99.90
46319;DHT22;32042;50.916;2.926;2022-09-20T18:04:08;15.40;99.90
46319;DHT22;32042;50.916;2.926;2022-09-20T18:06:39;15.40;99.90
46319;DHT22;32042;50.916;2.926;2022-09-20T18:09:12;15.40;99.90
46319;DHT22;32042;50.916;2.926;2022-09-20T18:11:43;15.30;99.90
46319;DHT22;32042;50.916;2.926;2022-09-20T18:14:14;15.30;99.90
46319;DHT22;32042;50.916;2.926;2022-09-20T18:16:41;15.30;99.90
46319;DHT22;32042;50.916;2.926;2022-09-20T18:19:11;15.20;99.90
46319;DHT22;32042;50.916;2.926;2022-09-20T18:21:38;15.20;99.90
46319;DHT22;32042;50.916;2.926;2022-09-20T18:24:06;15.10;99.90
46319;DHT22;32042;50.916;2.926;2022-09-20T18:26:32;15.10;99.90
46319;DHT22;32042;50.916;2.926;2022-09-20T18:29:04;15.10;99.90
46319;DHT22;32042;50.916;2.926;2022-09-20T18:31:31;15.10;99.90
46319;DHT22;32042;50.916;2.926;2022-09-20T18:33:58;15.10;99.90
46319;DHT22;32042;50.916;2.926;2022-09-20T18:36:26;15.10;99.90
46319;DHT22;32042;50.916;2.926;2022-09-20T18:38:54;15.10;99.90
46319;DHT22;32042;50.916;2.926;2022-09-20T18:41:28;15.10;99.90
46319;DHT22;32042;50.916;2.926;2022-09-20T18:43:56;15.10;99.90
46319;DHT22;32042;50.916;2.926;2022-09-20T18:46:23;15.00;99.90
46319;DHT22;32042;50.916;2.926;2022-09-20T18:48:53;14.90;99.90
46319;DHT22;32042;50.916;2.926;2022-09-20T18:51:20;14.90;99.90
46319;DHT22;32042;50.916;2.926;2022-09-20T18:53:46;14.90;99.90
46319;DHT22;32042;50.916;2.926;2022-09-20T18:58:37;14.80;99.90
46319;DHT22;32042;50.916;2.926;2022-09-20T19:01:15;14.70;99.90
46319;DHT22;32042;50.916;2.926;2022-09-20T19:04:08;14.70;99.90
46319;DHT22;32042;50.916;2.926;2022-09-20T19:06:42;14.60;99.90
46319;DHT22;32042;50.916;2.926;2022-09-20T19:15:58;14.40;99.90
46319;DHT22;32042;50.916;2.926;2022-09-20T19:26:26;14.20;99.90
46319;DHT22;32042;50.916;2.926;2022-09-20T19:28:54;14.10;99.90
46319;DHT22;32042;50.916;2.926;2022-09-20T19:31:31;14.10;99.90
46319;DHT22;32042;50.916;2.926;2022-09-20T19:33:59;14.00;99.90
46319;DHT22;32042;50.916;2.926;2022-09-20T19:52:42;13.60;99.90
46319;DHT22;32042;50.916;2.926;2022-09-20T19:55:12;13.50;99.90
46319;DHT22;32042;50.916;2.926;2022-09-20T19:57:42;13.50;99.90
46319;DHT22;32042;50.916;2.926;2022-09-20T20:00:13;13.50;99.90
46319;DHT22;32042;50.916;2.926;2022-09-20T20:02:41;13.50;99.90
46319;DHT22;32042;50.916;2.926;2022-09-20T20:05:14;13.50;99.90
46319;DHT22;32042;50.916;2.926;2022-09-20T20:07:54;13.40;99.90
46319;DHT22;32042;50.916;2.926;2022-09-20T20:16:13;13.20;99.90
46319;DHT22;32042;50.916;2.926;2022-09-20T20:26:39;12.90;99.90
46319;DHT22;32042;50.916;2.926;2022-09-20T20:29:05;12.90;99.90
46319;DHT22;32042;50.916;2.926;2022-09-20T20:31:30;12.90;99.90
46319;DHT22;32042;50.916;2.926;2022-09-20T20:33:57;12.90;99.90
46319;DHT22;32042;50.916;2.926;2022-09-20T20:36:23;12.80;99.90
46319;DHT22;32042;50.916;2.926;2022-09-20T20:38:48;12.80;99.90
46319;DHT22;32042;50.916;2.926;2022-09-20T20:41:18;12.80;99.90
46319;DHT22;32042;50.916;2.926;2022-09-20T20:43:46;12.80;99.90
46319;DHT22;32042;50.916;2.926;2022-09-20T20:46:16;12.70;99.90
46319;DHT22;32042;50.916;2.926;2022-09-20T20:48:45;12.70;99.90
46319;DHT22;32042;50.916;2.926;2022-09-20T20:51:19;12.70;99.90
46319;DHT22;32042;50.916;2.926;2022-09-20T20:53:52;12.70;99.90
46319;DHT22;32042;50.916;2.926;2022-09-20T20:56:26;12.70;99.90
46319;DHT22;32042;50.916;2.926;2022-09-20T20:58:53;12.70;99.90
46319;DHT22;32042;50.916;2.926;2022-09-20T21:01:33;12.70;99.90
46319;DHT22;32042;50.916;2.926;2022-09-20T21:04:00;12.70;99.90
46319;DHT22;32042;50.916;2.926;2022-09-20T21:06:31;12.70;99.90
46319;DHT22;32042;50.916;2.926;2022-09-20T21:08:59;12.70;99.90
46319;DHT22;32042;50.916;2.926;2022-09-20T21:11:27;12.70;99.90
46319;DHT22;32042;50.916;2.926;2022-09-20T21:13:56;12.70;99.90
46319;DHT22;32042;50.916;2.926;2022-09-20T21:16:27;12.70;99.90
46319;DHT22;32042;50.916;2.926;2022-09-20T21:18:54;12.70;99.90
46319;DHT22;32042;50.916;2.926;2022-09-20T21:21:22;12.60;99.90
46319;DHT22;32042;50.916;2.926;2022-09-20T21:23:50;12.60;99.90
46319;DHT22;32042;50.916;2.926;2022-09-20T21:26:17;12.60;99.90
46319;DHT22;32042;50.916;2.926;2022-09-20T21:28:50;12.60;99.90
46319;DHT22;32042;50.916;2.926;2022-09-20T21:31:17;12.50;99.90
46319;DHT22;32042;50.916;2.926;2022-09-20T21:33:43;12.50;99.90
46319;DHT22;32042;50.916;2.926;2022-09-20T21:36:14;12.50;99.90
46319;DHT22;32042;50.916;2.926;2022-09-20T21:38:41;12.40;99.90
46319;DHT22;32042;50.916;2.926;2022-09-20T21:41:13;12.40;99.90
46319;DHT22;32042;50.916;2.926;2022-09-20T21:43:41;12.30;99.90
46319;DHT22;32042;50.916;2.926;2022-09-20T21:46:15;12.30;99.90
46319;DHT22;32042;50.916;2.926;2022-09-20T21:48:42;12.30;99.90
46319;DHT22;32042;50.916;2.926;2022-09-20T21:51:09;12.20;99.90
46319;DHT22;32042;50.916;2.926;2022-09-20T21:53:36;12.20;99.90
46319;DHT22;32042;50.916;2.926;2022-09-20T21:56:05;12.10;99.90
46319;DHT22;32042;50.916;2.926;2022-09-20T21:58:31;12.10;99.90
46319;DHT22;32042;50.916;2.926;2022-09-20T22:01:12;12.00;99.90
46319;DHT22;32042;50.916;2.926;2022-09-20T22:03:43;11.90;99.90
46319;DHT22;32042;50.916;2.926;2022-09-20T22:06:15;11.90;99.90
46319;DHT22;32042;50.916;2.926;2022-09-20T22:11:11;11.80;99.90
46319;DHT22;32042;50.916;2.926;2022-09-20T22:13:48;11.70;99.90
46319;DHT22;32042;50.916;2.926;2022-09-20T22:16:20;11.60;99.90
46319;DHT22;32042;50.916;2.926;2022-09-20T22:18:46;11.60;99.90
46319;DHT22;32042;50.916;2.926;2022-09-20T22:21:23;11.60;99.90
46319;DHT22;32042;50.916;2.926;2022-09-20T22:23:57;11.60;99.90
46319;DHT22;32042;50.916;2.926;2022-09-20T22:26:27;11.50;99.90
46319;DHT22;32042;50.916;2.926;2022-09-20T22:28:53;11.50;99.90
46319;DHT22;32042;50.916;2.926;2022-09-20T22:31:27;11.50;99.90
46319;DHT22;32042;50.916;2.926;2022-09-20T22:33:56;11.40;99.90
46319;DHT22;32042;50.916;2.926;2022-09-20T22:36:25;11.40;99.90
46319;DHT22;32042;50.916;2.926;2022-09-20T22:38:52;11.30;99.90
46319;DHT22;32042;50.916;2.926;2022-09-20T22:41:19;11.30;99.90
46319;DHT22;32042;50.916;2.926;2022-09-20T22:43:45;11.30;99.90
46319;DHT22;32042;50.916;2.926;2022-09-20T22:46:17;11.20;99.90
46319;DHT22;32042;50.916;2.926;2022-09-20T22:48:43;11.20;99.90
46319;DHT22;32042;50.916;2.926;2022-09-20T22:51:17;11.20;99.90
46319;DHT22;32042;50.916;2.926;2022-09-20T22:53:43;11.10;99.90
46319;DHT22;32042;50.916;2.926;2022-09-20T22:56:13;11.10;99.90
46319;DHT22;32042;50.916;2.926;2022-09-20T22:58:41;11.10;99.90
46319;DHT22;32042;50.916;2.926;2022-09-20T23:01:08;11.10;99.90
46319;DHT22;32042;50.916;2.926;2022-09-20T23:03:35;11.10;99.90
46319;DHT22;32042;50.916;2.926;2022-09-20T23:06:01;11.10;99.90
46319;DHT22;32042;50.916;2.926;2022-09-20T23:08:29;11.10;99.90
46319;DHT22;32042;50.916;2.926;2022-09-20T23:11:04;11.10;99.90
46319;DHT22;32042;50.916;2.926;2022-09-20T23:13:30;11.10;99.90
46319;DHT22;32042;50.916;2.926;2022-09-20T23:15:56;11.10;99.90
46319;DHT22;32042;50.916;2.926;2022-09-20T23:18:22;11.10;99.90
46319;DHT22;32042;50.916;2.926;2022-09-20T23:20:59;11.20;99.90
46319;DHT22;32042;50.916;2.926;2022-09-20T23:23:25;11.20;99.90
46319;DHT22;32042;50.916;2.926;2022-09-20T23:25:51;11.30;99.90
46319;DHT22;32042;50.916;2.926;2022-09-20T23:28:22;11.30;99.90
46319;DHT22;32042;50.916;2.926;2022-09-20T23:30:51;11.40;99.90
46319;DHT22;32042;50.916;2.926;2022-09-20T23:33:17;11.40;99.90
46319;DHT22;32042;50.916;2.926;2022-09-20T23:35:44;11.40;99.90
46319;DHT22;32042;50.916;2.926;2022-09-20T23:38:10;11.40;99.90
46319;DHT22;32042;50.916;2.926;2022-09-20T23:40:36;11.50;99.90
46319;DHT22;32042;50.916;2.926;2022-09-20T23:43:02;11.50;99.90
46319;DHT22;32042;50.916;2.926;2022-09-20T23:45:27;11.50;99.90
46319;DHT22;32042;50.916;2.926;2022-09-20T23:47:53;11.50;99.90
46319;DHT22;32042;50.916;2.926;2022-09-20T23:50:19;11.50;99.90
46319;DHT22;32042;50.916;2.926;2022-09-20T23:52:45;11.50;99.90
46319;DHT22;32042;50.916;2.926;2022-09-20T23:55:10;11.50;99.90
46319;DHT22;32042;50.916;2.926;2022-09-20T23:57:36;11.60;99.90
